METAR Data
IDs: Format: Raw Decoded Include TAF

Data at: 2019 UTC 14 Dec 2018

KAXH 142015Z AUTO 30012G22KT 10SM OVC026 09/04 A2997 RMK AO2 T00920042
KAXH 141955Z AUTO 29015G23KT 10SM OVC026 09/04 A2997 RMK AO2 T00940043
KAXH 141935Z AUTO 29011G20KT 10SM OVC026 10/05 A2997 RMK AO2 T00950046
KAXH 141915Z AUTO 30011G21KT 10SM OVC026 10/05 A2998 RMK AO2 T00950045
KAXH 141855Z AUTO 30014G21KT 10SM OVC026 10/05 A2998 RMK AO2 T01000048
KAXH 141835Z AUTO 28013G18KT 10SM OVC026 10/05 A2998 RMK AO2 T01010051
KAXH 141815Z AUTO 29014G21KT 10SM OVC026 10/05 A2999 RMK AO2 T01000050
KAXH 141755Z AUTO 29011G17KT 10SM OVC024 10/05 A2999 RMK AO2 T01020051 10103 20061
KAXH 141735Z AUTO 29014G20KT 10SM OVC026 10/05 A3000 RMK AO2 T01020051
KAXH 141715Z AUTO 29011G19KT 10SM OVC024 10/06 A3000 RMK AO2 T00960056
KAXH 141655Z AUTO 29009G18KT 10SM OVC020 09/05 A3001 RMK AO2 T00860047
KAXH 141635Z AUTO 29016G21KT 10SM OVC020 08/05 A3001 RMK AO2 T00830047
KAXH 141615Z AUTO 29011G19KT 10SM OVC020 08/05 A3000 RMK AO2 T00830049
KAXH 141555Z AUTO 29010G19KT 10SM OVC020 08/05 A2999 RMK AO2 T00810048
KAXH 141535Z AUTO 29012G15KT 10SM OVC020 08/05 A2998 RMK AO2 T00800047
KAXH 141515Z AUTO 29014G19KT 10SM OVC018 08/05 A2996 RMK AO2 T00780048
KAXH 141455Z AUTO 29013G18KT 10SM OVC018 08/05 A2995 RMK AO2 LTG DSNT NE T00750047
KAXH 141435Z AUTO 29012G18KT 10SM OVC018 07/05 A2994 RMK AO2 T00730050
KAXH 141415Z AUTO 28009G18KT 10SM OVC018 07/05 A2993 RMK AO2 T00700050
KAXH 141355Z AUTO 28011G18KT 10SM OVC016 07/05 A2993 RMK AO2 T00650050
KAXH 141335Z AUTO 27009G18KT 7SM BKN012 OVC018 06/05 A2993 RMK AO2 LTG DSNT NE T00610046
KAXH 141315Z AUTO 28013G16KT 5SM BR OVC010 06/05 A2992 RMK AO2 T00630047
KAXH 141255Z AUTO 28011G22KT 4SM BR BKN010 OVC016 07/04 A2991 RMK AO2 T00650044
KAXH 141235Z AUTO 27010G17KT 10SM OVC018 07/04 A2991 RMK AO2 T00700042
KAXH 141215Z AUTO 27011G17KT 10SM OVC021 07/04 A2991 RMK AO2 LTG DSNT N T00700041
KAXH 141155Z AUTO 29015G20KT 10SM OVC023 08/04 A2990 RMK AO2 70001 T00750041 10092 20075
KAXH 141135Z AUTO 28013G18KT 10SM -DZ OVC023 08/04 A2989 RMK AO2 T00750039
KAXH 141115Z AUTO 27006G14KT 10SM OVC023 08/04 A2988 RMK AO2 T00780038
KAXH 141055Z AUTO 28009G15KT 10SM OVC023 08/04 A2988 RMK AO2 T00800040
KAXH 141035Z AUTO 28010G15KT 10SM OVC023 08/04 A2988 RMK AO2 T00800040
KAXH 141015Z AUTO 27008G19KT 10SM OVC025 08/04 A2988 RMK AO2 T00780041
KAXH 140955Z AUTO 29009KT 10SM BKN023 BKN028 OVC033 08/04 A2987 RMK AO2 T00800042
KAXH 140935Z AUTO 28012G17KT 10SM BKN027 OVC033 09/04 A2987 RMK AO2 T00850038
KAXH 140915Z AUTO 28010KT 10SM SCT029 OVC033 09/04 A2987 RMK AO2 T00850038
KAXH 140855Z AUTO 28011G16KT 10SM SCT029 OVC035 09/04 A2986 RMK AO2 T00850037
KAXH 140835Z AUTO 28009G16KT 10SM SCT030 OVC037 09/04 A2986 RMK AO2 T00850036
KAXH 140815Z AUTO 28011G19KT 10SM BKN041 08/04 A2986 RMK AO2 T00830035
KAXH 140755Z AUTO 26010G18KT 10SM OVC043 09/03 A2986 RMK AO2 T00880034
KAXH 140735Z AUTO 28011G14KT 10SM OVC043 09/03 A2987 RMK AO2 T00900033
KAXH 140715Z AUTO 28008KT 10SM OVC041 09/04 A2987 RMK AO2 T00900035
KAXH 140655Z AUTO 27011G17KT 10SM OVC039 09/04 A2987 RMK AO2 T00910036
KAXH 140635Z AUTO 28009G14KT 10SM OVC039 09/04 A2986 RMK AO2 T00920038
KAXH 140615Z AUTO 28011G14KT 10SM OVC039 09/04 A2987 RMK AO2 T00910036
KAXH 140555Z AUTO 27004KT 10SM OVC039 09/04 A2988 RMK AO2 T00900036 10196 20085
KAXH 140535Z AUTO 28007KT 10SM BKN039 09/04 A2988 RMK AO2 T00870035
KAXH 140515Z AUTO 29011G15KT 10SM CLR 09/03 A2988 RMK AO2 T00860031
KAXH 140455Z AUTO 29010G19KT 10SM CLR 09/03 A2988 RMK AO2 T00910032
KAXH 140435Z AUTO 29010G15KT 10SM CLR 10/04 A2987 RMK AO2 T00950035
KAXH 140415Z AUTO 28011G16KT 10SM CLR 10/04 A2986 RMK AO2 T01000035
KAXH 140355Z AUTO 29012G18KT 10SM CLR 11/04 A2987 RMK AO2 T01050035
KAXH 140335Z AUTO 30011G19KT 10SM CLR 11/04 A2985 RMK AO2 T01100036
KAXH 140315Z AUTO 29016G22KT 10SM CLR 12/04 A2985 RMK AO2 T01160038
KAXH 140255Z AUTO 28014G24KT 10SM CLR 13/05 A2983 RMK AO2 T01260045
KAXH 140235Z AUTO 28014G26KT 10SM CLR 15/04 A2982 RMK AO2 T01460044
KAXH 140215Z AUTO 26009G15KT 10SM CLR 16/04 A2978 RMK AO2 LTG DSNT E T01640041
KAXH 140155Z AUTO 27008KT 10SM CLR 17/05 A2978 RMK AO2 T01650051
KAXH 140135Z AUTO 27005KT 10SM SCT120 16/07 A2977 RMK AO2 T01640065
KAXH 140115Z AUTO 27004KT 10SM OVC120 17/05 A2976 RMK AO2 T01720054
KAXH 140055Z AUTO 27005KT 10SM OVC120 18/06 A2976 RMK AO2 T01810055
KAXH 140035Z AUTO 28007KT 10SM OVC110 19/06 A2976 RMK AO2 T01880061
KAXH 140015Z AUTO 29010G15KT 10SM OVC110 19/08 A2975 RMK AO2 LTG DSNT SE T01940076
KAXH 132355Z AUTO 27009KT 10SM OVC110 20/11 A2975 RMK AO2 T01950110 10245 20195
KAXH 132335Z AUTO 25004KT 10SM OVC110 20/11 A2973 RMK AO2 T02000110
KAXH 132315Z AUTO 26005KT 10SM BKN110 21/11 A2973 RMK AO2 T02060112
KAXH 132255Z AUTO 27007KT 10SM CLR 22/11 A2973 RMK AO2 T02160113
KAXH 132235Z AUTO 28007KT 10SM CLR 23/12 A2972 RMK AO2 T02290115
KAXH 132215Z AUTO 28009KT 10SM SCT070 SCT080 23/12 A2972 RMK AO2 T02300124
KAXH 132155Z AUTO 28008KT 10SM SCT050 SCT070 BKN090 23/14 A2972 RMK AO2 T02300135
KAXH 132135Z AUTO 27004KT 10SM SCT048 SCT075 OVC090 22/14 A2972 RMK AO2 T02200140
KAXH 132115Z AUTO 29008KT 10SM SCT042 SCT050 OVC085 24/14 A2972 RMK AO2 LTG DSNT N T02360140
KAXH 132055Z AUTO 25008KT 10SM SCT040 BKN050 BKN085 23/15 A2972 RMK AO2 LTG DSNT N T02270153
KAXH 132035Z AUTO 24008KT 10SM SCT040 SCT047 BKN080 23/15 A2971 RMK AO2 T02330147
KAXH 132015Z AUTO 27010G14KT 10SM SCT040 SCT047 SCT060 24/15 A2971 RMK AO2 T02400151
KAXH 131955Z AUTO 25008KT 10SM SCT042 SCT050 SCT065 24/17 A2971 RMK AO2 T02420166
KAXH 131935Z AUTO 25005KT 10SM SCT032 BKN042 BKN060 22/17 A2971 RMK AO2 T02220168
KAXH 131915Z AUTO 23005KT 10SM BKN032 OVC044 23/18 A2971 RMK AO2 T02310181
KAXH 131855Z AUTO 22007KT 10SM BKN027 BKN033 OVC040 23/18 A2973 RMK AO2 T02260177
KAXH 131835Z AUTO 19007KT 10SM BKN027 23/20 A2974 RMK AO2 T02310195
KAXH 131815Z AUTO 22004KT 10SM BKN020 BKN029 23/20 A2975 RMK AO2 T02290198
KAXH 131755Z AUTO 19005KT 10SM BKN020 BKN028 BKN050 22/20 A2976 RMK AO2 60001 T02200195 10224 20166
KAXH 131735Z AUTO 20005KT 10SM BKN018 BKN023 OVC120 21/20 A2978 RMK AO2 T02140201
KAXH 131715Z AUTO 22003KT 10SM BKN018 OVC025 21/19 A2980 RMK AO2 LTG DSNT N T02050186
KAXH 131655Z AUTO 21004KT 10SM SCT015 BKN024 OVC030 21/19 A2981 RMK AO2 LTG DSNT N T02050185
KAXH 131635Z AUTO 22004KT 10SM BKN015 OVC025 20/20 A2981 RMK AO2 T02000195
KAXH 131615Z AUTO 19005KT 10SM SCT013 SCT017 BKN027 20/20 A2981 RMK AO2 T02000199
KAXH 131555Z AUTO 16008KT 10SM CLR 20/20 A2981 RMK AO2 T02010201
KAXH 131535Z AUTO 19004KT 10SM SCT120 18/18 A2981 RMK AO2 LTG DSNT N T01840184
KAXH 131515Z AUTO 17005KT 7SM BKN110 18/18 A2980 RMK AO2 T01770177
KAXH 131455Z AUTO 18005KT 7SM SCT047 SCT065 BKN110 17/17 A2979 RMK AO2 P0001 60001 T01720172
KAXH 131435Z AUTO 18004KT 5SM RA SCT047 BKN060 OVC120 17/17 A2979 RMK AO2 P0001 T01700170
KAXH 131415Z AUTO 18004KT 7SM OVC110 17/17 A2978 RMK AO2 T01700170
KAXH 131355Z AUTO 00000KT 7SM BKN110 17/17 A2978 RMK AO2 T01700169
KAXH 131335Z AUTO 16004KT 10SM CLR 17/17 A2976 RMK AO2 T01670166
KAXH 131315Z AUTO 00000KT 10SM SCT048 17/17 A2977 RMK AO2 T01670166
KAXH 131255Z AUTO 00000KT 10SM BKN048 17/17 A2977 RMK AO2 LTG DSNT NE T01700168
KAXH 131235Z AUTO 16004KT 10SM SCT011 SCT014 OVC048 17/17 A2977 RMK AO2 T01710170
KAXH 131215Z AUTO 00000KT 10SM SCT008 BKN016 OVC020 18/17 A2977 RMK AO2 T01750172
KAXH 131155Z AUTO 18004KT 10SM SCT009 BKN020 BKN024 18/17 A2977 RMK AO2 LTG DSNT E AND SE 60068 70068 T01750172 10183 20172
KAXH 131135Z AUTO 19003KT 10SM BKN007 BKN025 BKN034 18/17 A2974 RMK AO2 LTG DSNT NE THRU SE T01750173
KAXH 131115Z AUTO 18004KT 10SM BKN005 OVC014 18/18 A2975 RMK AO2 LTG DSNT NE THRU SE T01760175
KAXH 131055Z AUTO 16008G15KT 7SM VCTSRA BKN005 BKN010 OVC042 18/17 A2975 RMK AO2 LTG DSNT N AND NE P0040 T01750172
KAXH 131035Z AUTO 15009G14KT 5SM +RA OVC007 18/17 A2977 RMK AO2 LTG DSNT N THRU S P0034 T01750172
KAXH 131015Z AUTO 17004KT 2SM /VCTSRA OVC007 18/17 A2977 RMK AO2 LTG DSNT N THRU S P0025 T01770172
KAXH 130955Z AUTO 27004KT 4SM VCTSRA BKN007 OVC012 18/17 A2978 RMK AO2 LTG DSNT N NE AND SW P0027 T01780170
KAXH 130935Z AUTO 19005KT 4SM TSRA BKN014 BKN024 OVC035 18/17 A2978 RMK AO2 LTG DSNT ALQS P0005 T01800170
KAXH 130915Z AUTO 17007G16KT 10SM VCTSRA OVC035 18/17 A2977 RMK AO2 LTG DSNT ALQS T01820167
KAXH 130855Z AUTO 16009KT 10SM VCTS BKN035 OVC050 18/17 A2979 RMK AO2 LTG DSNT SW THRU N T01820168
KAXH 130835Z AUTO 16005KT 10SM SCT046 BKN060 18/17 A2979 RMK AO2 LTG DSNT SW THRU N T01800165